Time;durP1;ratioP1;P1;durP2;ratioP2;P2;SDS_P1;SDS_P2;PMS_P1;PMS_P2;Temp;Humidity;BMP_temperature;BMP_pressure;BME280_temperature;BME280_humidity;BME280_pressure;Samples;Min_cycle;Max_cycle;Signal;HPM_P1;HPM_P2
2022/01/24 00:01:54;;;;;;;15.68;8.70;;;;;;;6.56;85.18;102447.56;8370133;28;20063;-63
2022/01/24 00:05:54;;;;;;;14.82;8.85;;;;;;;6.48;85.44;102441.69;8369960;28;20037;-63
2022/01/24 00:09:58;;;;;;;17.10;8.60;;;;;;;6.37;86.66;102443.09;8372484;28;20045;-62
2022/01/24 00:15:09;;;;;;;14.77;8.40;;;;;;;6.37;86.53;102430.50;8370714;28;20040;-63
2022/01/24 00:27:01;;;;;;;19.13;10.13;;;;;;;5.98;89.60;102434.94;8369474;28;20469;-62
2022/01/24 00:31:01;;;;;;;19.88;10.75;;;;;;;5.85;90.53;102428.31;8368044;28;20037;-63
2022/01/24 00:35:02;;;;;;;19.13;9.95;;;;;;;5.71;90.96;102428.84;8376556;28;20089;-62
2022/01/24 00:39:03;;;;;;;16.55;9.50;;;;;;;5.59;91.76;102436.53;8367809;28;20052;-62
2022/01/24 00:43:09;;;;;;;16.15;9.10;;;;;;;5.53;91.72;102426.06;8367055;28;20033;-63
2022/01/24 00:47:18;;;;;;;20.85;10.20;;;;;;;5.47;92.11;102421.81;8367517;28;20037;-62
2022/01/24 00:55:40;;;;;;;17.33;9.20;;;;;;;5.13;94.31;102423.22;8368112;28;20040;-62
2022/01/24 00:59:40;;;;;;;22.08;9.75;;;;;;;5.07;94.08;102424.34;8368663;28;20157;-62
2022/01/24 01:03:41;;;;;;;16.02;9.75;;;;;;;4.97;95.34;102425.59;8350570;28;20049;-62
2022/01/24 01:07:55;;;;;;;16.42;9.45;;;;;;;4.87;96.15;102412.59;8335418;28;20029;-62
2022/01/24 01:21:00;;;;;;;15.18;8.50;;;;;;;4.59;96.99;102415.47;8367847;28;20044;-62
2022/01/24 01:24:58;;;;;;;12.77;7.63;;;;;;;4.61;96.16;102410.03;8383363;28;20036;-62
2022/01/24 01:29:04;;;;;;;14.10;8.15;;;;;;;4.61;95.79;102416.28;8399995;28;20036;-62
2022/01/24 01:33:17;;;;;;;14.57;8.15;;;;;;;4.54;95.58;102408.53;8394398;28;20373;-62
2022/01/24 01:58:44;;;;;;;14.15;7.65;;;;;;;4.05;96.58;102404.91;8367296;28;19916;-62
2022/01/24 02:02:44;;;;;;;12.88;7.13;;;;;;;4.04;96.81;102402.28;8367241;28;20039;-62
2022/01/24 02:06:45;;;;;;;11.40;6.97;;;;;;;4.01;96.40;102397.94;8366028;28;20107;-62
2022/01/24 02:10:46;;;;;;;11.00;6.03;;;;;;;4.06;95.89;102398.63;8365099;28;20374;-62
2022/01/24 02:14:53;;;;;;;12.50;6.07;;;;;;;4.08;95.84;102402.13;8383344;28;20048;-62
2022/01/24 02:19:08;;;;;;;10.18;5.50;;;;;;;4.08;95.34;102399.47;8371607;28;20048;-62
2022/01/24 02:23:37;;;;;;;10.27;6.07;;;;;;;4.08;94.84;102394.09;8366360;28;20033;-62
2022/01/24 02:27:41;;;;;;;10.02;5.57;;;;;;;4.05;94.97;102386.19;8365294;28;20025;-62
2022/01/24 02:31:44;;;;;;;10.13;5.85;;;;;;;4.00;94.88;102379.25;8365107;28;20064;-62
2022/01/24 02:35:46;;;;;;;9.27;5.68;;;;;;;4.04;94.82;102381.78;8364343;28;20029;-62
2022/01/24 02:48:28;;;;;;;8.45;5.72;;;;;;;3.99;94.63;102388.19;8329504;28;20053;-63
2022/01/24 02:52:29;;;;;;;8.85;5.57;;;;;;;3.89;95.37;102376.97;8327844;28;20133;-62
2022/01/24 02:56:29;;;;;;;10.98;5.90;;;;;;;3.97;94.82;102379.38;8329293;28;20038;-63
2022/01/24 03:00:30;;;;;;;8.98;5.30;;;;;;;3.97;94.92;102385.56;8328445;28;20038;-62
2022/01/24 03:04:31;;;;;;;10.38;6.13;;;;;;;3.93;94.81;102375.03;8320247;28;20041;-63
2022/01/24 03:08:31;;;;;;;10.48;5.85;;;;;;;3.98;94.61;102373.97;8302865;28;20081;-63
2022/01/24 03:16:51;;;;;;;10.00;5.80;;;;;;;3.80;95.07;102366.56;8357427;27;20464;-62
2022/01/24 03:20:51;;;;;;;9.02;5.97;;;;;;;3.69;95.80;102360.69;8362738;28;20053;-62
2022/01/24 03:24:52;;;;;;;10.07;6.25;;;;;;;3.50;97.43;102362.25;8351578;28;20116;-62
2022/01/24 03:28:52;;;;;;;10.35;5.97;;;;;;;3.29;99.14;102359.38;8347289;28;20040;-62
2022/01/24 03:32:52;;;;;;;10.95;6.70;;;;;;;3.24;98.69;102359.56;8362585;28;20460;-62
2022/01/24 03:36:53;;;;;;;11.50;7.32;;;;;;;3.03;100.00;102360.25;8361774;28;20069;-62
2022/01/24 03:40:53;;;;;;;11.80;7.32;;;;;;;2.75;100.00;102363.81;8362281;28;20055;-62
2022/01/24 03:44:58;;;;;;;13.40;7.13;;;;;;;2.38;100.00;102369.31;8362054;28;20469;-62
2022/01/24 03:49:09;;;;;;;;;;;;;;;2.36;100.00;102373.84;8363331;28;20068;-62
2022/01/24 03:53:09;;;;;;;14.30;9.02;;;;;;;2.45;100.00;102365.59;8355847;28;19921;-62
2022/01/24 03:57:13;;;;;;;13.70;8.13;;;;;;;2.42;100.00;102376.34;8338491;28;20071;-62
2022/01/24 04:01:13;;;;;;;14.20;8.20;;;;;;;2.37;100.00;102378.25;8360236;28;20428;-62
2022/01/24 04:05:14;;;;;;;13.77;8.02;;;;;;;2.47;100.00;102377.06;8359036;28;20427;-62
2022/01/24 04:09:15;;;;;;;11.82;7.22;;;;;;;2.27;100.00;102368.78;8370007;28;20108;-62
2022/01/24 04:13:29;;;;;;;14.32;7.95;;;;;;;2.20;100.00;102369.88;8360728;28;20091;-62
2022/01/24 04:17:39;;;;;;;11.45;7.57;;;;;;;2.11;100.00;102375.47;8356619;28;20033;-62
2022/01/24 04:21:46;;;;;;;13.88;7.63;;;;;;;1.96;100.00;102371.41;8361700;28;20040;-62
2022/01/24 04:25:47;;;;;;;16.30;8.30;;;;;;;1.77;100.00;102378.13;8352144;28;20036;-62
2022/01/24 04:29:47;;;;;;;14.18;8.90;;;;;;;1.65;100.00;102381.13;8338419;28;20037;-62
2022/01/24 04:33:49;;;;;;;14.77;8.45;;;;;;;1.75;100.00;102377.31;8339211;28;20038;-62
2022/01/24 04:37:49;;;;;;;15.85;7.57;;;;;;;1.77;100.00;102377.28;8337480;28;20033;-62
2022/01/24 04:41:53;;;;;;;12.88;7.80;;;;;;;1.89;100.00;102368.94;8334909;28;20056;-62
2022/01/24 04:47:01;;;;;;;15.73;8.88;;;;;;;1.94;100.00;102364.38;8320095;28;20037;-62
2022/01/24 04:50:40;;;;;;;11.93;7.70;;;;;;;1.74;100.00;102369.38;8338650;28;20514;-62
2022/01/24 04:58:49;;;;;;;13.30;7.80;;;;;;;1.68;100.00;102378.38;8420322;27;20822;-60
2022/01/24 05:02:49;;;;;;;15.55;8.88;;;;;;;1.64;100.00;102371.38;8402997;28;20040;-60
2022/01/24 05:06:49;;;;;;;16.50;10.05;;;;;;;1.74;100.00;102374.69;8415354;28;20036;-60
2022/01/24 05:10:58;;;;;;;13.70;9.38;;;;;;;1.89;100.00;102379.59;8418816;28;20040;-60
2022/01/24 05:23:42;;;;;;;14.95;9.15;;;;;;;1.89;100.00;102384.94;8411812;28;20562;-60
2022/01/24 05:27:42;;;;;;;16.50;9.90;;;;;;;1.85;100.00;102373.50;8411680;28;20495;-60
2022/01/24 05:31:43;;;;;;;19.55;10.43;;;;;;;2.13;100.00;102376.28;8408213;28;20685;-60
2022/01/24 05:35:43;;;;;;;18.27;11.18;;;;;;;2.39;100.00;102378.22;8389590;28;20035;-62
2022/01/24 05:39:44;;;;;;;17.73;10.88;;;;;;;2.66;100.00;102383.66;8388639;28;20040;-62
2022/01/24 05:43:44;;;;;;;16.95;11.25;;;;;;;2.78;100.00;102383.28;8411700;28;20032;-62
2022/01/24 05:47:45;;;;;;;16.95;11.23;;;;;;;2.68;100.00;102389.81;8389778;28;20043;-62
2022/01/24 05:51:45;;;;;;;15.57;11.00;;;;;;;2.67;100.00;102387.19;8383171;28;20504;-62
2022/01/24 05:55:46;;;;;;;17.48;10.55;;;;;;;2.62;100.00;102379.31;8399275;28;20038;-62
2022/01/24 05:59:46;;;;;;;19.15;11.30;;;;;;;2.56;100.00;102384.81;8393687;28;20028;-62
2022/01/24 06:03:46;;;;;;;17.98;9.90;;;;;;;2.48;100.00;102389.53;8391559;28;20045;-62
2022/01/24 06:07:49;;;;;;;16.52;9.63;;;;;;;1.74;100.00;102391.53;8366329;28;20051;-62
2022/01/24 06:11:51;;;;;;;16.73;10.25;;;;;;;1.39;100.00;102398.66;8348714;28;20091;-62
2022/01/24 06:15:51;;;;;;;21.52;11.77;;;;;;;1.52;100.00;102400.13;8378029;28;20054;-62
2022/01/24 06:19:52;;;;;;;22.58;12.77;;;;;;;1.60;100.00;102392.81;8362308;28;20029;-62
2022/01/24 06:23:52;;;;;;;19.42;10.13;;;;;;;1.37;100.00;102405.84;8353982;28;20030;-62
2022/01/24 06:27:52;;;;;;;19.50;11.30;;;;;;;1.41;100.00;102408.38;8360515;28;20037;-62
2022/01/24 06:31:53;;;;;;;21.67;11.00;;;;;;;1.26;100.00;102411.44;8385456;28;20029;-62
2022/01/24 06:35:53;;;;;;;20.42;12.45;;;;;;;1.19;100.00;102416.94;8386083;28;20048;-62
2022/01/24 06:39:55;;;;;;;15.95;10.20;;;;;;;1.20;100.00;102418.66;8348842;28;20116;-62
2022/01/24 06:43:56;;;;;;;23.10;12.90;;;;;;;1.15;100.00;102415.22;8382819;28;20040;-62
2022/01/24 06:47:56;;;;;;;22.15;12.27;;;;;;;1.37;100.00;102417.34;8375530;28;20034;-62
2022/01/24 06:51:56;;;;;;;25.98;14.25;;;;;;;1.38;100.00;102420.91;8378174;28;20033;-62
2022/01/24 06:55:57;;;;;;;25.13;14.63;;;;;;;1.52;100.00;102424.09;8385697;28;20037;-62
2022/01/24 06:59:57;;;;;;;23.45;13.30;;;;;;;1.28;100.00;102411.38;8382875;28;20033;-62
2022/01/24 07:03:58;;;;;;;25.88;13.07;;;;;;;1.22;100.00;102414.19;8358704;28;20409;-62
2022/01/24 07:07:59;;;;;;;26.10;14.80;;;;;;;1.26;100.00;102421.19;8347427;28;20114;-62
2022/01/24 07:12:00;;;;;;;36.42;16.23;;;;;;;1.62;100.00;102407.84;8353484;28;20694;-62
2022/01/24 07:16:04;;;;;;;28.13;16.25;;;;;;;1.55;100.00;102411.59;8381295;28;20091;-62
2022/01/24 07:20:04;;;;;;;;;;;;;;;1.47;100.00;102412.69;8379939;28;20045;-62
2022/01/24 07:24:05;;;;;;;30.10;15.68;;;;;;;1.34;100.00;102416.56;8381695;28;19958;-62
2022/01/24 07:28:05;;;;;;;23.33;13.68;;;;;;;1.00;100.00;102423.56;8367369;28;20037;-63
2022/01/24 07:32:06;;;;;;;25.75;14.38;;;;;;;1.13;100.00;102423.25;8348321;28;20490;-63
2022/01/24 07:36:07;;;;;;;31.70;16.70;;;;;;;1.37;100.00;102428.00;8349554;28;20065;-63
2022/01/24 07:40:09;;;;;;;26.60;15.35;;;;;;;1.25;100.00;102440.75;8380405;28;20033;-63
2022/01/24 07:44:11;;;;;;;28.67;16.10;;;;;;;1.18;100.00;102441.78;8378662;28;20115;-62
2022/01/24 07:48:13;;;;;;;28.67;16.58;;;;;;;1.36;100.00;102447.59;8370327;28;20045;-62
2022/01/24 07:52:13;;;;;;;23.23;14.55;;;;;;;1.45;100.00;102446.47;8379267;28;20033;-62
2022/01/24 07:56:14;;;;;;;23.65;13.73;;;;;;;1.38;100.00;102451.09;8353731;28;20045;-63
2022/01/24 08:00:14;;;;;;;24.98;15.25;;;;;;;1.53;100.00;102436.53;8375134;28;20071;-63
2022/01/24 08:04:15;;;;;;;27.10;15.18;;;;;;;1.69;100.00;102440.56;8370223;28;20033;-63
2022/01/24 08:08:15;;;;;;;28.13;14.40;;;;;;;1.61;100.00;102434.53;8348580;28;20444;-62
2022/01/24 08:12:17;;;;;;;22.17;13.25;;;;;;;1.58;100.00;102442.59;8370133;28;20500;-63
2022/01/24 08:16:18;;;;;;;25.60;15.57;;;;;;;2.00;100.00;102450.44;8344260;28;20529;-63
2022/01/24 08:20:19;;;;;;;23.52;13.57;;;;;;;2.11;100.00;102449.28;8360415;28;20041;-62
2022/01/24 08:24:20;;;;;;;25.42;13.10;;;;;;;2.29;100.00;102444.34;8347268;28;20032;-63
2022/01/24 08:28:20;;;;;;;21.40;13.98;;;;;;;2.45;100.00;102450.13;8337167;28;20504;-63
2022/01/24 08:32:20;;;;;;;21.48;13.48;;;;;;;2.70;100.00;102446.72;8329068;28;20064;-62
2022/01/24 08:36:21;;;;;;;25.55;14.32;;;;;;;2.73;100.00;102445.75;8337366;28;20056;-63
2022/01/24 08:40:25;;;;;;;25.20;14.23;;;;;;;2.98;100.00;102442.31;8333685;28;20155;-63
2022/01/24 08:45:58;;;;;;;23.90;14.52;;;;;;;3.30;100.00;102444.88;8341858;28;20042;-62
2022/01/24 08:48:47;;;;;;;23.45;14.00;;;;;;;3.52;100.00;102445.97;8356882;28;20171;-63
2022/01/24 08:52:47;;;;;;;26.63;14.38;;;;;;;3.59;99.59;102439.50;8334249;28;20037;-63
2022/01/24 08:56:47;;;;;;;20.15;12.50;;;;;;;3.60;99.27;102445.72;8332960;28;20037;-63
2022/01/24 09:00:48;;;;;;;22.95;15.00;;;;;;;4.07;98.60;102440.53;8366758;28;20094;-63
2022/01/24 09:04:49;;;;;;;23.15;12.48;;;;;;;6.07;89.61;102445.25;8362151;28;20037;-63
2022/01/24 09:08:55;;;;;;;18.15;11.82;;;;;;;7.22;81.89;102447.19;8347023;28;20073;-63
2022/01/24 09:12:56;;;;;;;18.67;11.23;;;;;;;8.11;77.29;102434.66;8347635;28;20442;-63
2022/01/24 09:16:56;;;;;;;20.88;13.07;;;;;;;8.58;75.79;102440.31;8356615;28;20037;-63
2022/01/24 09:20:57;;;;;;;24.20;11.80;;;;;;;8.57;73.75;102434.03;8329807;28;20413;-63
2022/01/24 09:24:57;;;;;;;16.65;11.10;;;;;;;8.98;75.35;102434.53;8329062;28;20087;-63
2022/01/24 09:28:58;;;;;;;16.92;11.77;;;;;;;9.42;71.84;102430.22;8344597;28;20037;-63
2022/01/24 09:32:58;;;;;;;18.60;11.32;;;;;;;9.03;72.78;102429.75;8352192;28;20445;-63
2022/01/24 09:36:59;;;;;;;18.20;11.25;;;;;;;8.36;74.42;102439.72;8329949;28;20049;-63
2022/01/24 09:41:04;;;;;;;15.02;11.07;;;;;;;8.93;75.63;102437.47;8357815;28;20109;-63
2022/01/24 09:45:05;;;;;;;17.52;10.65;;;;;;;10.07;72.35;102445.38;8365740;28;20090;-63
2022/01/24 09:49:07;;;;;;;15.30;9.35;;;;;;;9.75;71.43;102440.00;8367856;28;20255;-63
2022/01/24 09:53:07;;;;;;;14.30;10.80;;;;;;;9.82;70.37;102432.38;8365187;28;20038;-63
2022/01/24 09:57:08;;;;;;;13.15;10.15;;;;;;;9.33;71.88;102425.38;8367383;28;20180;-63
2022/01/24 10:01:08;;;;;;;12.20;8.18;;;;;;;9.48;71.54;102432.56;8363558;28;20040;-63
2022/01/24 10:05:16;;;;;;;13.15;8.80;;;;;;;9.93;70.33;102432.63;8364043;28;20098;-63
2022/01/24 10:09:17;;;;;;;12.93;8.75;;;;;;;9.90;71.34;102433.69;8363363;28;20547;-63
2022/01/24 10:17:30;;;;;;;9.63;8.10;;;;;;;10.42;69.02;102426.09;8423584;27;20851;-63
2022/01/24 10:21:40;;;;;;;14.18;8.30;;;;;;;10.85;67.96;102430.59;8352638;28;20080;-63
2022/01/24 10:26:04;;;;;;;15.65;8.50;;;;;;;10.68;68.29;102428.09;8371000;28;20043;-63
2022/01/24 10:30:10;;;;;;;14.27;8.40;;;;;;;10.52;68.31;102429.13;8373675;28;20049;-63
2022/01/24 10:34:22;;;;;;;11.90;8.10;;;;;;;10.83;69.39;102423.53;8359334;28;20968;-63
2022/01/24 10:38:42;;;;;;;11.80;7.65;;;;;;;11.74;65.55;102422.97;8363981;28;20124;-63
2022/01/24 10:42:52;;;;;;;9.60;6.95;;;;;;;10.71;67.19;102417.06;8367070;28;20116;-63
2022/01/24 10:46:53;;;;;;;11.45;7.70;;;;;;;10.49;69.03;102419.31;8361869;28;20044;-63
2022/01/24 10:51:15;;;;;;;10.73;7.60;;;;;;;10.42;69.07;102417.97;8344752;28;20042;-63
2022/01/24 10:55:28;;;;;;;10.65;7.05;;;;;;;11.08;68.58;102408.38;8362138;28;20431;-63
2022/01/24 10:59:28;;;;;;;10.85;6.85;;;;;;;10.31;69.93;102412.34;8364959;28;20029;-63
2022/01/24 11:03:29;;;;;;;7.65;6.18;;;;;;;8.87;74.94;102404.56;8363318;28;20034;-63
2022/01/24 11:07:29;;;;;;;6.15;4.50;;;;;;;9.60;73.02;102407.56;8361717;28;20033;-63
2022/01/24 11:11:30;;;;;;;7.43;5.25;;;;;;;8.83;73.34;102400.28;8362785;28;20034;-63
2022/01/24 11:15:30;;;;;;;6.93;6.00;;;;;;;7.80;78.49;102392.25;8337636;28;20091;-63
2022/01/24 11:19:39;;;;;;;7.68;5.80;;;;;;;7.99;77.46;102398.47;8333460;28;20072;-63
2022/01/24 11:23:40;;;;;;;6.80;5.85;;;;;;;9.54;73.53;102391.72;8332456;28;20044;-63
2022/01/24 11:27:44;;;;;;;7.53;6.03;;;;;;;10.08;71.48;102404.75;8313818;28;20041;-63
2022/01/24 11:31:52;;;;;;;7.05;5.43;;;;;;;10.02;70.92;102396.97;8297583;28;20129;-63
2022/01/24 11:36:00;;;;;;;5.68;4.95;;;;;;;9.85;71.24;102397.09;8297330;28;20049;-63
2022/01/24 11:40:06;;;;;;;6.78;4.70;;;;;;;10.18;69.23;102396.97;8296517;28;20092;-63
2022/01/24 11:44:15;;;;;;;8.27;5.10;;;;;;;10.18;69.96;102394.28;8295609;28;20629;-63
2022/01/24 11:48:20;;;;;;;5.85;5.03;;;;;;;10.16;69.32;102386.25;8314023;28;20137;-63
2022/01/24 11:52:29;;;;;;;;;;;;;;;10.33;68.75;102383.38;8300384;28;20095;-63
2022/01/24 11:56:32;;;;;;;8.05;5.60;;;;;;;8.53;75.09;102373.16;8298064;28;19917;-63
2022/01/24 12:00:40;;;;;;;7.82;6.30;;;;;;;7.88;79.96;102379.28;8297600;28;20161;-63
2022/01/24 12:05:08;;;;;;;7.18;5.63;;;;;;;9.62;73.58;102351.66;8298387;28;20030;-63
2022/01/24 12:09:08;;;;;;;8.85;4.95;;;;;;;10.75;69.31;102353.69;8283395;28;20050;-63
2022/01/24 12:17:48;;;;;;;5.20;4.70;;;;;;;9.89;70.85;102356.28;8407374;27;20464;-63
2022/01/24 12:21:48;;;;;;;6.00;5.22;;;;;;;7.95;76.84;102356.47;8397171;28;20512;-63
2022/01/24 12:25:54;;;;;;;7.75;6.03;;;;;;;7.67;79.85;102363.34;8364420;28;20417;-63
2022/01/24 12:29:56;;;;;;;7.93;7.15;;;;;;;7.35;81.06;102361.38;8364413;28;20037;-63
2022/01/24 12:34:07;;;;;;;8.27;7.18;;;;;;;7.20;82.28;102357.59;8376219;28;20507;-63
2022/01/24 12:38:16;;;;;;;9.88;6.57;;;;;;;8.56;80.00;102355.94;8380001;28;20044;-63
2022/01/24 12:42:32;;;;;;;8.13;6.38;;;;;;;8.69;77.54;102348.97;8372851;28;20033;-63
2022/01/24 12:46:33;;;;;;;8.25;5.95;;;;;;;9.61;73.59;102355.34;8383934;28;20044;-63
2022/01/24 12:50:34;;;;;;;10.50;7.63;;;;;;;8.48;78.99;102350.13;8387803;28;20064;-63
2022/01/24 12:54:38;;;;;;;8.57;5.30;;;;;;;9.25;74.66;102357.44;8372091;28;20036;-63
2022/01/24 12:58:41;;;;;;;7.95;6.18;;;;;;;8.23;77.82;102357.78;8356653;28;20041;-63
2022/01/24 13:02:42;;;;;;;6.82;5.85;;;;;;;7.79;80.06;102352.84;8361537;28;20037;-63
2022/01/24 13:06:46;;;;;;;13.07;6.10;;;;;;;7.66;80.72;102351.69;8353618;28;20116;-63
2022/01/24 13:10:48;;;;;;;10.00;6.38;;;;;;;7.82;80.53;102333.84;8371368;27;20037;-63
2022/01/24 13:14:52;;;;;;;14.40;9.57;;;;;;;7.84;81.75;102322.97;8399584;28;20047;-63
2022/01/24 13:23:24;;;;;;;9.95;6.70;;;;;;;7.34;82.28;102317.47;8398243;28;20414;-63
2022/01/24 13:27:44;;;;;;;12.18;8.52;;;;;;;7.28;83.16;102323.13;8346440;28;20515;-63
2022/01/24 13:31:50;;;;;;;10.48;7.07;;;;;;;7.17;83.64;102324.63;8356889;28;20386;-63
2022/01/24 13:35:55;;;;;;;11.82;7.45;;;;;;;7.19;83.96;102331.66;8349079;28;20075;-63
2022/01/24 13:39:55;;;;;;;8.35;7.00;;;;;;;7.16;84.65;102331.81;8344275;28;20029;-63
2022/01/24 13:44:00;;;;;;;10.77;8.25;;;;;;;6.94;85.18;102333.78;8348590;28;20124;-63
2022/01/24 13:48:04;;;;;;;11.10;8.18;;;;;;;6.83;86.05;102330.72;8361170;28;20037;-63
2022/01/24 13:52:11;;;;;;;14.10;9.30;;;;;;;6.95;85.89;102324.78;8355871;28;20057;-62
2022/01/24 14:00:29;;;;;;;19.85;10.55;;;;;;;6.77;86.93;102312.22;8322819;28;20473;-63
2022/01/24 14:04:36;;;;;;;14.70;9.40;;;;;;;6.81;86.47;102321.88;8302884;28;20037;-63
2022/01/24 14:08:36;;;;;;;15.57;10.10;;;;;;;6.82;86.32;102318.25;8304923;28;20434;-63
2022/01/24 14:12:48;;;;;;;13.55;10.52;;;;;;;6.83;86.93;102309.22;8292020;28;20061;-63
2022/01/24 14:17:08;;;;;;;14.90;9.68;;;;;;;6.77;86.61;102309.53;8353143;28;20473;-62
2022/01/24 14:21:13;;;;;;;10.52;8.88;;;;;;;6.75;86.91;102310.53;8297889;28;20050;-63
2022/01/24 14:25:17;;;;;;;19.73;10.02;;;;;;;6.80;87.12;102309.38;8307152;28;20148;-63
2022/01/24 14:29:19;;;;;;;14.93;9.73;;;;;;;6.80;86.82;102314.75;8327608;28;20053;-63
2022/01/24 14:33:22;;;;;;;14.80;10.27;;;;;;;6.89;87.15;102308.09;8318367;28;20488;-63
2022/01/24 14:37:22;;;;;;;16.02;10.77;;;;;;;6.82;87.77;102295.84;8313101;28;20037;-63
2022/01/24 14:45:39;;;;;;;11.82;9.27;;;;;;;6.67;87.63;102305.53;8396252;27;20481;-63
2022/01/24 14:49:42;;;;;;;14.43;9.63;;;;;;;6.63;88.00;102306.63;8376063;28;20056;-63
2022/01/24 14:53:44;;;;;;;17.88;10.60;;;;;;;6.60;88.47;102317.53;8362046;28;20072;-63
2022/01/24 14:57:44;;;;;;;14.95;9.93;;;;;;;6.60;88.13;102309.47;8368317;28;20039;-63
2022/01/24 15:01:45;;;;;;;13.93;10.52;;;;;;;6.51;88.59;102301.81;8364878;28;20048;-63
2022/01/24 15:05:45;;;;;;;16.95;10.73;;;;;;;6.52;89.35;102303.56;8369734;28;20151;-63
2022/01/24 15:09:46;;;;;;;15.73;11.15;;;;;;;6.43;89.48;102308.50;8365634;28;20524;-63
2022/01/24 15:13:53;;;;;;;15.00;10.75;;;;;;;6.43;89.37;102309.34;8350201;28;20037;-63
2022/01/24 15:26:34;;;;;;;18.15;10.85;;;;;;;6.30;90.69;102307.28;8351122;28;20104;-63
2022/01/24 15:30:35;;;;;;;16.88;12.02;;;;;;;6.18;91.28;102298.00;8352590;28;20087;-63
2022/01/24 15:34:37;;;;;;;18.27;11.98;;;;;;;6.06;91.98;102295.84;8345540;28;20049;-63
2022/01/24 15:38:38;;;;;;;18.02;12.32;;;;;;;6.01;92.33;102304.13;8349860;28;20529;-62
2022/01/24 15:43:25;;;;;;;21.80;14.00;;;;;;;5.95;92.27;102300.84;8352475;28;20091;-63
2022/01/24 15:47:29;;;;;;;18.80;11.30;;;;;;;5.85;93.25;102311.09;8334439;28;20412;-63
2022/01/24 15:51:25;;;;;;;20.00;13.10;;;;;;;5.67;93.79;102300.25;8346255;28;20044;-63
2022/01/24 15:55:29;;;;;;;20.25;13.30;;;;;;;5.54;94.50;102294.56;8331364;28;20469;-63
2022/01/24 15:59:29;;;;;;;20.83;13.68;;;;;;;5.54;94.84;102301.72;8324085;28;20231;-63
2022/01/24 16:03:30;;;;;;;21.00;12.38;;;;;;;5.45;95.52;102311.03;8324036;28;20042;-62
2022/01/24 16:07:33;;;;;;;20.48;12.52;;;;;;;5.39;95.49;102310.41;8307219;28;20347;-63
2022/01/24 16:11:33;;;;;;;23.55;14.45;;;;;;;5.25;96.57;102307.44;8312222;28;20033;-62
2022/01/24 16:15:35;;;;;;;21.55;14.18;;;;;;;5.16;98.01;102302.47;8330147;28;20116;-63
2022/01/24 16:19:40;;;;;;;19.33;13.40;;;;;;;5.03;98.71;102301.22;8331081;28;20041;-62
2022/01/24 16:23:54;;;;;;;23.52;14.02;;;;;;;4.90;99.39;102291.91;8323052;28;20033;-62
2022/01/24 16:27:55;;;;;;;21.08;13.80;;;;;;;4.93;99.72;102299.81;8315651;28;20394;-63
2022/01/24 16:31:55;;;;;;;21.00;14.38;;;;;;;4.90;99.42;102295.47;8305590;28;20041;-63
2022/01/24 16:36:03;;;;;;;21.10;12.38;;;;;;;4.98;98.58;102287.13;8319336;28;20504;-63
2022/01/24 16:40:09;;;;;;;25.83;15.50;;;;;;;4.92;98.07;102295.41;8320076;28;20037;-63
2022/01/24 16:44:23;;;;;;;19.02;13.07;;;;;;;4.82;98.48;102296.72;8312939;28;20050;-62
2022/01/24 16:48:24;;;;;;;20.13;11.80;;;;;;;4.83;99.09;102296.66;8315040;28;20564;-63
2022/01/24 16:52:28;;;;;;;19.55;13.68;;;;;;;4.76;99.03;102307.66;8315961;28;20440;-62
2022/01/24 16:56:31;;;;;;;21.50;13.50;;;;;;;4.69;99.53;102314.19;8324610;28;20033;-62
2022/01/24 17:00:31;;;;;;;20.98;13.13;;;;;;;4.69;99.82;102316.84;8313339;28;20041;-62
2022/01/24 17:04:32;;;;;;;21.15;13.52;;;;;;;4.56;99.87;102310.22;8318152;28;20474;-62
2022/01/24 17:08:33;;;;;;;24.00;12.63;;;;;;;4.58;100.00;102308.38;8319420;28;20075;-62
2022/01/24 17:12:33;;;;;;;22.63;13.20;;;;;;;4.46;100.00;102320.44;8319106;28;20043;-62
2022/01/24 17:16:35;;;;;;;20.48;12.73;;;;;;;4.48;100.00;102328.41;8326723;28;20029;-62
2022/01/24 17:20:36;;;;;;;20.38;13.15;;;;;;;4.45;100.00;102324.03;8323988;28;20534;-62
2022/01/24 17:24:36;;;;;;;23.20;13.50;;;;;;;4.34;100.00;102320.91;8323742;28;20105;-62
2022/01/24 17:28:36;;;;;;;21.77;14.55;;;;;;;4.35;100.00;102319.06;8314876;28;20105;-62
2022/01/24 17:32:38;;;;;;;24.33;14.70;;;;;;;4.25;100.00;102321.25;8322908;28;20041;-62
2022/01/24 17:36:39;;;;;;;27.90;15.32;;;;;;;4.23;100.00;102316.84;8324258;28;20556;-62
2022/01/24 17:40:39;;;;;;;28.02;16.30;;;;;;;4.23;100.00;102311.50;8323826;28;20417;-62
2022/01/24 17:44:41;;;;;;;25.23;15.30;;;;;;;4.25;100.00;102320.34;8323564;28;20060;-62
2022/01/24 17:48:41;;;;;;;22.85;14.93;;;;;;;4.18;100.00;102318.84;8322173;28;20608;-62
2022/01/24 17:52:43;;;;;;;24.52;16.05;;;;;;;4.20;100.00;102330.38;8318028;28;20107;-62
2022/01/24 17:56:48;;;;;;;33.55;17.42;;;;;;;4.13;100.00;102334.19;8308681;28;20045;-62
2022/01/24 18:00:49;;;;;;;27.17;17.38;;;;;;;4.05;100.00;102329.09;8317182;28;20037;-62
2022/01/24 18:04:50;;;;;;;32.78;18.35;;;;;;;4.01;100.00;102339.06;8323434;28;20037;-62
2022/01/24 18:08:50;;;;;;;31.83;18.75;;;;;;;4.06;100.00;102331.72;8324699;28;20171;-62
2022/01/24 18:12:53;;;;;;;44.15;22.02;;;;;;;4.04;100.00;102325.56;8317328;28;20049;-62
2022/01/24 18:16:54;;;;;;;29.88;18.95;;;;;;;4.01;100.00;102333.72;8311712;28;20058;-62
2022/01/24 18:20:55;;;;;;;32.67;19.65;;;;;;;3.93;100.00;102335.78;8325295;28;20354;-62
2022/01/24 18:24:56;;;;;;;36.42;18.65;;;;;;;3.96;100.00;102357.06;8324602;28;20041;-62
2022/01/24 18:28:56;;;;;;;39.03;20.73;;;;;;;3.84;100.00;102352.16;8324008;28;20052;-62
2022/01/24 18:32:58;;;;;;;39.42;22.33;;;;;;;3.89;100.00;102357.34;8322987;28;20041;-62
2022/01/24 18:36:58;;;;;;;33.40;20.27;;;;;;;3.86;100.00;102355.66;8309135;28;20038;-62
2022/01/24 18:40:59;;;;;;;36.28;20.25;;;;;;;3.83;100.00;102354.88;8323259;28;20048;-62
2022/01/24 18:45:05;;;;;;;31.42;19.58;;;;;;;3.80;100.00;102344.28;8321115;28;20744;-62
2022/01/24 18:49:06;;;;;;;39.42;21.52;;;;;;;3.83;100.00;102352.19;8315277;28;20420;-62
2022/01/24 18:53:07;;;;;;;35.80;21.67;;;;;;;3.81;100.00;102354.94;8318591;28;20421;-62
2022/01/24 18:57:08;;;;;;;36.13;20.85;;;;;;;3.81;100.00;102354.94;8322031;28;20091;-62
2022/01/24 19:01:08;;;;;;;44.40;23.67;;;;;;;3.74;100.00;102361.44;8321784;28;20045;-62
2022/01/24 19:05:09;;;;;;;43.38;24.60;;;;;;;3.76;100.00;102354.19;8323047;28;20037;-62
2022/01/24 19:09:09;;;;;;;48.80;24.48;;;;;;;3.81;100.00;102367.41;8322826;28;20573;-62
2022/01/24 19:13:14;;;;;;;42.10;24.13;;;;;;;3.78;100.00;102365.75;8306782;28;20479;-62
2022/01/24 19:17:25;;;;;;;44.10;22.80;;;;;;;3.82;100.00;102375.38;8316948;28;20132;-62
2022/01/24 19:25:50;;;;;;;44.85;25.63;;;;;;;3.62;100.00;102385.91;8314800;28;20060;-62
2022/01/24 19:29:51;;;;;;;42.13;23.05;;;;;;;3.72;100.00;102383.81;8321829;28;20433;-62
2022/01/24 19:33:52;;;;;;;43.78;26.23;;;;;;;3.76;100.00;102394.31;8327022;28;20103;-62
2022/01/24 19:37:52;;;;;;;48.58;27.48;;;;;;;3.78;100.00;102392.47;8320671;28;20038;-63
2022/01/24 19:41:54;;;;;;;41.67;24.00;;;;;;;3.84;100.00;102397.63;8319013;28;20045;-62
2022/01/24 19:45:56;;;;;;;46.60;23.13;;;;;;;3.92;100.00;102397.38;8322867;28;20493;-62
2022/01/24 19:49:56;;;;;;;47.25;26.38;;;;;;;3.91;100.00;102396.47;8313807;28;20409;-62
2022/01/24 19:53:58;;;;;;;42.42;24.30;;;;;;;3.95;100.00;102402.63;8325885;28;20520;-62
2022/01/24 19:58:11;;;;;;;42.28;24.02;;;;;;;3.97;100.00;102398.09;8322525;28;20484;-62
2022/01/24 20:02:12;;;;;;;49.55;27.15;;;;;;;3.86;100.00;102382.41;8326599;28;20046;-62
2022/01/24 20:06:13;;;;;;;42.58;24.23;;;;;;;4.13;100.00;102380.56;8328076;28;20045;-63
2022/01/24 20:10:14;;;;;;;47.55;24.25;;;;;;;4.33;100.00;102382.53;8310408;28;20737;-62
2022/01/24 20:14:14;;;;;;;41.63;22.52;;;;;;;4.43;100.00;102383.94;8314986;28;20171;-63
2022/01/24 20:18:15;;;;;;;46.88;25.35;;;;;;;4.48;100.00;102379.28;8310862;28;20578;-62
2022/01/24 20:22:16;;;;;;;42.25;23.85;;;;;;;4.42;100.00;102372.34;8312078;28;20510;-62
2022/01/24 20:26:17;;;;;;;48.40;25.23;;;;;;;4.44;100.00;102361.56;8321430;28;20535;-62